sensor_id;sensor_type;location;lat;lon;timestamp;temperature;humidity
10213;DHT22;5150;51.400;6.692;2022-10-03T00:05:31;18.40;99.90
10213;DHT22;5150;51.400;6.692;2022-10-03T00:09:17;18.40;99.90
10213;DHT22;5150;51.400;6.692;2022-10-03T00:12:56;18.40;99.90
10213;DHT22;5150;51.400;6.692;2022-10-03T00:16:25;18.40;99.90
10213;DHT22;5150;51.400;6.692;2022-10-03T00:19:56;18.30;99.90
10213;DHT22;5150;51.400;6.692;2022-10-03T00:23:28;18.30;99.90
10213;DHT22;5150;51.400;6.692;2022-10-03T00:27:04;18.30;99.90
10213;DHT22;5150;51.400;6.692;2022-10-03T00:30:44;18.30;99.90
10213;DHT22;5150;51.400;6.692;2022-10-03T00:34:18;18.30;99.90
10213;DHT22;5150;51.400;6.692;2022-10-03T00:37:45;18.30;99.90
10213;DHT22;5150;51.400;6.692;2022-10-03T00:41:39;18.30;99.90
10213;DHT22;5150;51.400;6.692;2022-10-03T00:45:35;18.30;99.90
10213;DHT22;5150;51.400;6.692;2022-10-03T00:49:33;18.30;99.90
10213;DHT22;5150;51.400;6.692;2022-10-03T00:53:14;18.30;99.90
10213;DHT22;5150;51.400;6.692;2022-10-03T00:56:53;18.20;99.90
10213;DHT22;5150;51.400;6.692;2022-10-03T01:00:21;18.20;99.90
10213;DHT22;5150;51.400;6.692;2022-10-03T01:03:54;18.20;99.90
10213;DHT22;5150;51.400;6.692;2022-10-03T01:07:34;18.20;99.90
10213;DHT22;5150;51.400;6.692;2022-10-03T01:11:05;18.20;99.90
10213;DHT22;5150;51.400;6.692;2022-10-03T01:14:50;18.20;99.90
10213;DHT22;5150;51.400;6.692;2022-10-03T01:18:23;18.20;99.90
10213;DHT22;5150;51.400;6.692;2022-10-03T01:22:03;18.20;99.90
10213;DHT22;5150;51.400;6.692;2022-10-03T01:25:38;18.20;99.90
10213;DHT22;5150;51.400;6.692;2022-10-03T01:29:08;18.20;99.90
10213;DHT22;5150;51.400;6.692;2022-10-03T01:32:54;18.20;99.90
10213;DHT22;5150;51.400;6.692;2022-10-03T01:36:24;18.20;99.90
10213;DHT22;5150;51.400;6.692;2022-10-03T01:39:55;18.20;99.90
10213;DHT22;5150;51.400;6.692;2022-10-03T01:43:29;18.10;99.90
10213;DHT22;5150;51.400;6.692;2022-10-03T01:47:07;18.10;99.90
10213;DHT22;5150;51.400;6.692;2022-10-03T01:50:37;18.10;99.90
10213;DHT22;5150;51.400;6.692;2022-10-03T01:54:15;18.10;99.90
10213;DHT22;5150;51.400;6.692;2022-10-03T01:57:44;18.10;99.90
10213;DHT22;5150;51.400;6.692;2022-10-03T02:01:11;18.10;99.90
10213;DHT22;5150;51.400;6.692;2022-10-03T02:04:44;18.10;99.90
10213;DHT22;5150;51.400;6.692;2022-10-03T02:08:28;18.10;99.90
10213;DHT22;5150;51.400;6.692;2022-10-03T02:11:59;18.10;99.90
10213;DHT22;5150;51.400;6.692;2022-10-03T02:15:27;18.10;99.90
10213;DHT22;5150;51.400;6.692;2022-10-03T02:18:57;18.10;99.90
10213;DHT22;5150;51.400;6.692;2022-10-03T02:22:32;18.10;99.90
10213;DHT22;5150;51.400;6.692;2022-10-03T02:26:04;18.10;99.90
10213;DHT22;5150;51.400;6.692;2022-10-03T02:29:54;18.10;99.90
10213;DHT22;5150;51.400;6.692;2022-10-03T02:33:45;18.10;99.90
10213;DHT22;5150;51.400;6.692;2022-10-03T02:37:31;18.10;99.90
10213;DHT22;5150;51.400;6.692;2022-10-03T02:41:11;18.10;99.90
10213;DHT22;5150;51.400;6.692;2022-10-03T02:44:57;18.10;99.90
10213;DHT22;5150;51.400;6.692;2022-10-03T02:49:02;18.10;99.90
10213;DHT22;5150;51.400;6.692;2022-10-03T02:56:55;18.10;99.90
10213;DHT22;5150;51.400;6.692;2022-10-03T03:00:33;18.10;99.90
10213;DHT22;5150;51.400;6.692;2022-10-03T03:04:34;18.10;99.90
10213;DHT22;5150;51.400;6.692;2022-10-03T03:08:17;18.10;99.90
10213;DHT22;5150;51.400;6.692;2022-10-03T03:16:41;18.10;99.90
10213;DHT22;5150;51.400;6.692;2022-10-03T03:20:27;18.10;99.90
10213;DHT22;5150;51.400;6.692;2022-10-03T03:24:07;18.10;99.90
10213;DHT22;5150;51.400;6.692;2022-10-03T03:27:38;18.00;99.90
10213;DHT22;5150;51.400;6.692;2022-10-03T03:31:09;18.00;99.90
10213;DHT22;5150;51.400;6.692;2022-10-03T03:34:40;18.00;99.90
10213;DHT22;5150;51.400;6.692;2022-10-03T03:38:18;18.00;99.90
10213;DHT22;5150;51.400;6.692;2022-10-03T03:42:01;18.00;99.90
10213;DHT22;5150;51.400;6.692;2022-10-03T03:45:41;18.10;99.90
10213;DHT22;5150;51.400;6.692;2022-10-03T03:49:26;18.00;99.90
10213;DHT22;5150;51.400;6.692;2022-10-03T03:53:19;18.00;99.90
10213;DHT22;5150;51.400;6.692;2022-10-03T03:56:59;18.00;99.90
10213;DHT22;5150;51.400;6.692;2022-10-03T04:00:33;18.00;99.90
10213;DHT22;5150;51.400;6.692;2022-10-03T04:04:07;18.00;99.90
10213;DHT22;5150;51.400;6.692;2022-10-03T04:07:46;18.00;99.90
10213;DHT22;5150;51.400;6.692;2022-10-03T04:11:20;17.90;99.90
10213;DHT22;5150;51.400;6.692;2022-10-03T04:15:12;18.00;99.90
10213;DHT22;5150;51.400;6.692;2022-10-03T04:18:52;18.00;99.90
10213;DHT22;5150;51.400;6.692;2022-10-03T04:22:30;18.00;99.90
10213;DHT22;5150;51.400;6.692;2022-10-03T04:26:15;18.00;99.90
10213;DHT22;5150;51.400;6.692;2022-10-03T04:29:45;18.00;99.90
10213;DHT22;5150;51.400;6.692;2022-10-03T04:33:27;18.00;99.90
10213;DHT22;5150;51.400;6.692;2022-10-03T04:37:04;18.00;99.90
10213;DHT22;5150;51.400;6.692;2022-10-03T04:40:40;18.00;99.90
10213;DHT22;5150;51.400;6.692;2022-10-03T04:44:13;18.00;99.90
10213;DHT22;5150;51.400;6.692;2022-10-03T04:47:46;17.90;99.90
10213;DHT22;5150;51.400;6.692;2022-10-03T04:51:17;18.00;99.90
10213;DHT22;5150;51.400;6.692;2022-10-03T04:54:47;18.00;99.90
10213;DHT22;5150;51.400;6.692;2022-10-03T04:58:23;18.00;99.90
10213;DHT22;5150;51.400;6.692;2022-10-03T05:01:51;18.00;99.90
10213;DHT22;5150;51.400;6.692;2022-10-03T05:09:23;18.00;99.90
10213;DHT22;5150;51.400;6.692;2022-10-03T05:12:53;18.00;99.90
10213;DHT22;5150;51.400;6.692;2022-10-03T05:16:25;18.00;99.90
10213;DHT22;5150;51.400;6.692;2022-10-03T05:20:02;18.00;99.90
10213;DHT22;5150;51.400;6.692;2022-10-03T05:23:49;17.90;99.90
10213;DHT22;5150;51.400;6.692;2022-10-03T05:27:26;17.90;99.90
10213;DHT22;5150;51.400;6.692;2022-10-03T05:31:00;18.00;99.90
10213;DHT22;5150;51.400;6.692;2022-10-03T05:34:33;18.00;99.90
10213;DHT22;5150;51.400;6.692;2022-10-03T05:41:52;17.90;99.90
10213;DHT22;5150;51.400;6.692;2022-10-03T05:45:46;18.00;99.90
10213;DHT22;5150;51.400;6.692;2022-10-03T05:49:31;18.00;99.90
10213;DHT22;5150;51.400;6.692;2022-10-03T05:53:07;18.00;99.90
10213;DHT22;5150;51.400;6.692;2022-10-03T05:56:54;18.00;99.90
10213;DHT22;5150;51.400;6.692;2022-10-03T06:00:20;18.00;99.90
10213;DHT22;5150;51.400;6.692;2022-10-03T06:04:04;18.00;99.90
10213;DHT22;5150;51.400;6.692;2022-10-03T06:07:32;18.00;99.90
10213;DHT22;5150;51.400;6.692;2022-10-03T06:11:13;18.00;99.90
10213;DHT22;5150;51.400;6.692;2022-10-03T06:14:56;18.00;99.90
10213;DHT22;5150;51.400;6.692;2022-10-03T06:22:59;18.00;99.90
10213;DHT22;5150;51.400;6.692;2022-10-03T06:30:46;18.00;99.90
10213;DHT22;5150;51.400;6.692;2022-10-03T06:34:27;18.00;99.90
10213;DHT22;5150;51.400;6.692;2022-10-03T06:42:15;18.00;99.90
10213;DHT22;5150;51.400;6.692;2022-10-03T06:46:10;18.00;99.90
10213;DHT22;5150;51.400;6.692;2022-10-03T06:53:58;18.10;99.90
10213;DHT22;5150;51.400;6.692;2022-10-03T06:57:45;18.10;99.90
10213;DHT22;5150;51.400;6.692;2022-10-03T07:01:46;18.10;99.90
10213;DHT22;5150;51.400;6.692;2022-10-03T07:06:01;18.10;99.90
10213;DHT22;5150;51.400;6.692;2022-10-03T07:10:03;18.10;99.90
10213;DHT22;5150;51.400;6.692;2022-10-03T07:13:46;18.10;99.90
10213;DHT22;5150;51.400;6.692;2022-10-03T07:17:24;18.10;99.90
10213;DHT22;5150;51.400;6.692;2022-10-03T07:21:20;18.10;99.90
10213;DHT22;5150;51.400;6.692;2022-10-03T07:29:12;18.20;99.90
10213;DHT22;5150;51.400;6.692;2022-10-03T07:33:21;18.20;99.90
10213;DHT22;5150;51.400;6.692;2022-10-03T07:37:00;18.20;99.90
10213;DHT22;5150;51.400;6.692;2022-10-03T07:41:14;18.20;99.90
10213;DHT22;5150;51.400;6.692;2022-10-03T07:45:18;18.20;99.90
10213;DHT22;5150;51.400;6.692;2022-10-03T07:53:00;18.20;99.90
10213;DHT22;5150;51.400;6.692;2022-10-03T07:56:53;18.20;99.90
10213;DHT22;5150;51.400;6.692;2022-10-03T08:00:21;18.20;99.90
10213;DHT22;5150;51.400;6.692;2022-10-03T08:07:52;18.30;99.90
10213;DHT22;5150;51.400;6.692;2022-10-03T08:11:32;18.30;99.90
10213;DHT22;5150;51.400;6.692;2022-10-03T08:15:08;18.30;99.90
10213;DHT22;5150;51.400;6.692;2022-10-03T08:22:35;18.40;99.90
10213;DHT22;5150;51.400;6.692;2022-10-03T08:26:15;18.40;99.90
10213;DHT22;5150;51.400;6.692;2022-10-03T08:30:02;18.40;99.90
10213;DHT22;5150;51.400;6.692;2022-10-03T08:33:39;18.40;99.90
10213;DHT22;5150;51.400;6.692;2022-10-03T08:37:28;18.40;99.90
10213;DHT22;5150;51.400;6.692;2022-10-03T08:49:09;18.40;99.90
10213;DHT22;5150;51.400;6.692;2022-10-03T08:52:49;18.50;99.90
10213;DHT22;5150;51.400;6.692;2022-10-03T08:56:26;18.50;99.90
10213;DHT22;5150;51.400;6.692;2022-10-03T09:00:03;18.50;99.90
10213;DHT22;5150;51.400;6.692;2022-10-03T09:07:45;18.50;99.90
10213;DHT22;5150;51.400;6.692;2022-10-03T09:11:55;18.60;99.90
10213;DHT22;5150;51.400;6.692;2022-10-03T09:20:13;18.50;99.90
10213;DHT22;5150;51.400;6.692;2022-10-03T09:24:07;18.50;99.90
10213;DHT22;5150;51.400;6.692;2022-10-03T09:28:03;18.50;99.90
10213;DHT22;5150;51.400;6.692;2022-10-03T09:31:59;18.50;99.90
10213;DHT22;5150;51.400;6.692;2022-10-03T09:39:47;18.50;99.90
10213;DHT22;5150;51.400;6.692;2022-10-03T09:43:45;18.50;99.90
10213;DHT22;5150;51.400;6.692;2022-10-03T09:47:39;18.50;99.90
10213;DHT22;5150;51.400;6.692;2022-10-03T09:51:27;18.50;99.90
10213;DHT22;5150;51.400;6.692;2022-10-03T09:59:11;18.50;99.90
10213;DHT22;5150;51.400;6.692;2022-10-03T10:06:47;18.60;99.90
10213;DHT22;5150;51.400;6.692;2022-10-03T10:14:44;18.80;99.90
10213;DHT22;5150;51.400;6.692;2022-10-03T10:18:30;18.80;99.90
10213;DHT22;5150;51.400;6.692;2022-10-03T10:22:26;18.90;99.90
10213;DHT22;5150;51.400;6.692;2022-10-03T10:26:31;19.00;99.90
10213;DHT22;5150;51.400;6.692;2022-10-03T10:30:16;19.00;99.90
10213;DHT22;5150;51.400;6.692;2022-10-03T10:34:09;19.10;99.90
10213;DHT22;5150;51.400;6.692;2022-10-03T10:38:12;19.20;99.90
10213;DHT22;5150;51.400;6.692;2022-10-03T10:42:11;19.20;99.90
10213;DHT22;5150;51.400;6.692;2022-10-03T10:45:42;19.20;99.90
10213;DHT22;5150;51.400;6.692;2022-10-03T10:49:39;19.30;99.90
10213;DHT22;5150;51.400;6.692;2022-10-03T10:57:25;19.50;99.90
10213;DHT22;5150;51.400;6.692;2022-10-03T11:05:32;19.50;89.50
10213;DHT22;5150;51.400;6.692;2022-10-03T11:09:40;19.60;71.80
10213;DHT22;5150;51.400;6.692;2022-10-03T11:17:45;19.70;22.70
10213;DHT22;5150;51.400;6.692;2022-10-03T11:21:54;19.70;28.90
10213;DHT22;5150;51.400;6.692;2022-10-03T11:37:40;20.10;6.70
10213;DHT22;5150;51.400;6.692;2022-10-03T11:41:12;20.70;1.00
10213;DHT22;5150;51.400;6.692;2022-10-03T11:44:40;20.80;1.00
10213;DHT22;5150;51.400;6.692;2022-10-03T11:48:22;20.70;1.00
10213;DHT22;5150;51.400;6.692;2022-10-03T11:51:55;20.90;1.00
10213;DHT22;5150;51.400;6.692;2022-10-03T11:55:28;20.70;1.00
10213;DHT22;5150;51.400;6.692;2022-10-03T11:59:02;20.50;1.00
10213;DHT22;5150;51.400;6.692;2022-10-03T12:03:15;20.30;1.00
10213;DHT22;5150;51.400;6.692;2022-10-03T12:06:53;20.20;1.00
10213;DHT22;5150;51.400;6.692;2022-10-03T12:10:46;20.30;1.00
10213;DHT22;5150;51.400;6.692;2022-10-03T12:14:21;20.50;1.00
10213;DHT22;5150;51.400;6.692;2022-10-03T12:17:52;20.60;1.00
10213;DHT22;5150;51.400;6.692;2022-10-03T12:21:23;21.10;1.00
10213;DHT22;5150;51.400;6.692;2022-10-03T12:24:50;21.90;1.00
10213;DHT22;5150;51.400;6.692;2022-10-03T12:28:19;22.60;1.00
10213;DHT22;5150;51.400;6.692;2022-10-03T12:31:53;23.00;1.00
10213;DHT22;5150;51.400;6.692;2022-10-03T12:35:34;23.20;1.00
10213;DHT22;5150;51.400;6.692;2022-10-03T12:39:14;23.30;1.00
10213;DHT22;5150;51.400;6.692;2022-10-03T12:42:49;23.30;1.00
10213;DHT22;5150;51.400;6.692;2022-10-03T12:46:15;23.30;1.00
10213;DHT22;5150;51.400;6.692;2022-10-03T12:49:50;22.80;1.00
10213;DHT22;5150;51.400;6.692;2022-10-03T12:53:22;22.10;1.00
10213;DHT22;5150;51.400;6.692;2022-10-03T12:56:48;21.60;1.00
10213;DHT22;5150;51.400;6.692;2022-10-03T13:00:19;21.30;1.00
10213;DHT22;5150;51.400;6.692;2022-10-03T13:03:49;21.10;1.00
10213;DHT22;5150;51.400;6.692;2022-10-03T13:07:19;21.10;1.00
10213;DHT22;5150;51.400;6.692;2022-10-03T13:10:49;21.00;1.00
10213;DHT22;5150;51.400;6.692;2022-10-03T13:14:28;21.00;1.00
10213;DHT22;5150;51.400;6.692;2022-10-03T13:17:58;21.00;1.00
10213;DHT22;5150;51.400;6.692;2022-10-03T13:21:36;21.10;1.00
10213;DHT22;5150;51.400;6.692;2022-10-03T13:25:13;21.10;1.00
10213;DHT22;5150;51.400;6.692;2022-10-03T13:28:52;21.10;1.00
10213;DHT22;5150;51.400;6.692;2022-10-03T13:32:27;21.20;1.00
10213;DHT22;5150;51.400;6.692;2022-10-03T13:35:56;21.40;1.00
10213;DHT22;5150;51.400;6.692;2022-10-03T13:39:23;21.60;1.00
10213;DHT22;5150;51.400;6.692;2022-10-03T13:42:48;21.50;1.00
10213;DHT22;5150;51.400;6.692;2022-10-03T13:46:17;21.40;1.00
10213;DHT22;5150;51.400;6.692;2022-10-03T13:49:51;21.20;1.00
10213;DHT22;5150;51.400;6.692;2022-10-03T13:53:33;21.00;1.00
10213;DHT22;5150;51.400;6.692;2022-10-03T13:57:11;20.80;1.00
10213;DHT22;5150;51.400;6.692;2022-10-03T14:00:49;20.80;1.00
10213;DHT22;5150;51.400;6.692;2022-10-03T14:08:28;20.60;1.00
10213;DHT22;5150;51.400;6.692;2022-10-03T14:12:01;20.60;1.00
10213;DHT22;5150;51.400;6.692;2022-10-03T14:15:32;20.60;1.00
10213;DHT22;5150;51.400;6.692;2022-10-03T14:19:06;20.60;1.00
10213;DHT22;5150;51.400;6.692;2022-10-03T14:22:39;20.60;1.00
10213;DHT22;5150;51.400;6.692;2022-10-03T14:26:12;20.60;1.00
10213;DHT22;5150;51.400;6.692;2022-10-03T14:29:47;20.70;1.00
10213;DHT22;5150;51.400;6.692;2022-10-03T14:33:18;20.80;1.00
10213;DHT22;5150;51.400;6.692;2022-10-03T14:36:47;20.70;1.00
10213;DHT22;5150;51.400;6.692;2022-10-03T14:40:15;20.70;1.00
10213;DHT22;5150;51.400;6.692;2022-10-03T14:43:44;20.70;1.00
10213;DHT22;5150;51.400;6.692;2022-10-03T14:47:13;20.70;1.00
10213;DHT22;5150;51.400;6.692;2022-10-03T14:50:38;21.00;1.00
10213;DHT22;5150;51.400;6.692;2022-10-03T14:54:04;21.20;1.00
10213;DHT22;5150;51.400;6.692;2022-10-03T14:57:31;21.30;1.00
10213;DHT22;5150;51.400;6.692;2022-10-03T15:01:17;21.30;1.00
10213;DHT22;5150;51.400;6.692;2022-10-03T15:04:42;21.30;1.00
10213;DHT22;5150;51.400;6.692;2022-10-03T15:08:14;21.30;1.00
10213;DHT22;5150;51.400;6.692;2022-10-03T15:11:44;21.10;1.00
10213;DHT22;5150;51.400;6.692;2022-10-03T15:15:14;21.10;1.00
10213;DHT22;5150;51.400;6.692;2022-10-03T15:18:39;21.10;1.00
10213;DHT22;5150;51.400;6.692;2022-10-03T15:22:18;21.00;1.00
10213;DHT22;5150;51.400;6.692;2022-10-03T15:25:43;21.00;1.00
10213;DHT22;5150;51.400;6.692;2022-10-03T15:29:15;20.90;1.00
10213;DHT22;5150;51.400;6.692;2022-10-03T15:32:40;20.90;1.00
10213;DHT22;5150;51.400;6.692;2022-10-03T15:36:15;20.80;1.00
10213;DHT22;5150;51.400;6.692;2022-10-03T15:39:40;20.70;1.00
10213;DHT22;5150;51.400;6.692;2022-10-03T15:43:20;20.70;1.00
10213;DHT22;5150;51.400;6.692;2022-10-03T15:46:51;20.60;1.00
10213;DHT22;5150;51.400;6.692;2022-10-03T15:50:20;20.60;1.00
10213;DHT22;5150;51.400;6.692;2022-10-03T15:53:48;20.60;1.00
10213;DHT22;5150;51.400;6.692;2022-10-03T15:57:18;20.50;1.00
10213;DHT22;5150;51.400;6.692;2022-10-03T16:00:47;20.50;1.00
10213;DHT22;5150;51.400;6.692;2022-10-03T16:04:17;20.50;1.00
10213;DHT22;5150;51.400;6.692;2022-10-03T16:07:48;20.50;1.00
10213;DHT22;5150;51.400;6.692;2022-10-03T16:11:18;20.50;1.00
10213;DHT22;5150;51.400;6.692;2022-10-03T16:14:45;20.50;1.00
10213;DHT22;5150;51.400;6.692;2022-10-03T16:18:40;20.40;1.00
10213;DHT22;5150;51.400;6.692;2022-10-03T16:22:15;20.40;1.00
10213;DHT22;5150;51.400;6.692;2022-10-03T16:25:44;20.40;1.00
10213;DHT22;5150;51.400;6.692;2022-10-03T16:29:14;20.40;1.00
10213;DHT22;5150;51.400;6.692;2022-10-03T16:32:44;20.40;1.00
10213;DHT22;5150;51.400;6.692;2022-10-03T16:36:16;20.40;1.00
10213;DHT22;5150;51.400;6.692;2022-10-03T16:39:42;20.40;1.00
10213;DHT22;5150;51.400;6.692;2022-10-03T16:43:15;20.40;1.00
10213;DHT22;5150;51.400;6.692;2022-10-03T16:46:42;20.30;1.00
10213;DHT22;5150;51.400;6.692;2022-10-03T16:50:20;20.30;1.00
10213;DHT22;5150;51.400;6.692;2022-10-03T16:53:48;20.30;1.00
10213;DHT22;5150;51.400;6.692;2022-10-03T16:57:15;20.30;1.00
10213;DHT22;5150;51.400;6.692;2022-10-03T17:00:48;20.30;1.00
10213;DHT22;5150;51.400;6.692;2022-10-03T17:04:35;20.30;1.00
10213;DHT22;5150;51.400;6.692;2022-10-03T17:08:00;20.20;1.00
10213;DHT22;5150;51.400;6.692;2022-10-03T17:11:48;20.20;1.00
10213;DHT22;5150;51.400;6.692;2022-10-03T17:15:17;20.10;1.00
10213;DHT22;5150;51.400;6.692;2022-10-03T17:18:44;20.20;1.00
10213;DHT22;5150;51.400;6.692;2022-10-03T17:22:15;20.10;1.00
10213;DHT22;5150;51.400;6.692;2022-10-03T17:25:48;20.10;1.00
10213;DHT22;5150;51.400;6.692;2022-10-03T17:29:16;20.10;1.00
10213;DHT22;5150;51.400;6.692;2022-10-03T17:32:42;20.10;1.00
10213;DHT22;5150;51.400;6.692;2022-10-03T17:40:12;20.10;1.00
10213;DHT22;5150;51.400;6.692;2022-10-03T17:43:40;20.00;1.00
10213;DHT22;5150;51.400;6.692;2022-10-03T17:47:09;20.00;1.00
10213;DHT22;5150;51.400;6.692;2022-10-03T17:50:37;20.00;1.00
10213;DHT22;5150;51.400;6.692;2022-10-03T17:54:08;20.00;1.00
10213;DHT22;5150;51.400;6.692;2022-10-03T17:57:36;20.00;1.00
10213;DHT22;5150;51.400;6.692;2022-10-03T18:01:07;19.90;1.00
10213;DHT22;5150;51.400;6.692;2022-10-03T18:04:36;20.00;1.00
10213;DHT22;5150;51.400;6.692;2022-10-03T18:08:03;19.90;1.00
10213;DHT22;5150;51.400;6.692;2022-10-03T18:11:28;19.90;1.00
10213;DHT22;5150;51.400;6.692;2022-10-03T18:19:07;19.90;1.00
10213;DHT22;5150;51.400;6.692;2022-10-03T18:22:34;19.80;1.00
10213;DHT22;5150;51.400;6.692;2022-10-03T18:26:04;19.80;1.00
10213;DHT22;5150;51.400;6.692;2022-10-03T18:29:46;19.80;1.00
10213;DHT22;5150;51.400;6.692;2022-10-03T18:33:15;19.70;1.00
10213;DHT22;5150;51.400;6.692;2022-10-03T18:36:43;19.70;1.00
10213;DHT22;5150;51.400;6.692;2022-10-03T18:40:13;19.70;1.00
10213;DHT22;5150;51.400;6.692;2022-10-03T18:43:39;19.70;1.00
10213;DHT22;5150;51.400;6.692;2022-10-03T18:47:15;19.60;1.00
10213;DHT22;5150;51.400;6.692;2022-10-03T18:50:52;19.60;1.00
10213;DHT22;5150;51.400;6.692;2022-10-03T18:54:27;19.60;1.00
10213;DHT22;5150;51.400;6.692;2022-10-03T18:57:57;19.50;1.00
10213;DHT22;5150;51.400;6.692;2022-10-03T19:01:28;19.50;1.00
10213;DHT22;5150;51.400;6.692;2022-10-03T19:04:56;19.50;1.00
10213;DHT22;5150;51.400;6.692;2022-10-03T19:08:25;19.50;1.00
10213;DHT22;5150;51.400;6.692;2022-10-03T19:11:55;19.50;1.00
10213;DHT22;5150;51.400;6.692;2022-10-03T19:15:20;19.40;1.00
10213;DHT22;5150;51.400;6.692;2022-10-03T19:19:00;19.40;1.00
10213;DHT22;5150;51.400;6.692;2022-10-03T19:22:29;19.40;1.00
10213;DHT22;5150;51.400;6.692;2022-10-03T19:25:56;19.30;1.00
10213;DHT22;5150;51.400;6.692;2022-10-03T19:29:23;19.40;1.00
10213;DHT22;5150;51.400;6.692;2022-10-03T19:32:51;19.30;1.00
10213;DHT22;5150;51.400;6.692;2022-10-03T19:36:18;19.30;1.50
10213;DHT22;5150;51.400;6.692;2022-10-03T19:39:42;19.30;2.60
10213;DHT22;5150;51.400;6.692;2022-10-03T19:43:30;19.30;4.10
10213;DHT22;5150;51.400;6.692;2022-10-03T19:47:05;19.30;6.90
10213;DHT22;5150;51.400;6.692;2022-10-03T19:50:35;19.20;8.00
10213;DHT22;5150;51.400;6.692;2022-10-03T19:53:59;19.20;9.70
10213;DHT22;5150;51.400;6.692;2022-10-03T19:57:26;19.20;11.70
10213;DHT22;5150;51.400;6.692;2022-10-03T20:00:55;19.20;14.00
10213;DHT22;5150;51.400;6.692;2022-10-03T20:04:31;19.20;16.00
10213;DHT22;5150;51.400;6.692;2022-10-03T20:08:00;19.20;19.50
10213;DHT22;5150;51.400;6.692;2022-10-03T20:11:39;19.10;21.80
10213;DHT22;5150;51.400;6.692;2022-10-03T20:15:15;19.10;24.30
10213;DHT22;5150;51.400;6.692;2022-10-03T20:18:42;19.10;25.80
10213;DHT22;5150;51.400;6.692;2022-10-03T20:22:06;19.10;29.20
10213;DHT22;5150;51.400;6.692;2022-10-03T20:25:31;19.10;30.50
10213;DHT22;5150;51.400;6.692;2022-10-03T20:29:11;19.00;34.10
10213;DHT22;5150;51.400;6.692;2022-10-03T20:32:38;19.00;38.60
10213;DHT22;5150;51.400;6.692;2022-10-03T20:36:12;19.00;40.70
10213;DHT22;5150;51.400;6.692;2022-10-03T20:39:38;19.00;44.70
10213;DHT22;5150;51.400;6.692;2022-10-03T20:43:32;19.00;48.40
10213;DHT22;5150;51.400;6.692;2022-10-03T20:47:06;19.00;51.60
10213;DHT22;5150;51.400;6.692;2022-10-03T20:50:34;18.90;53.50
10213;DHT22;5150;51.400;6.692;2022-10-03T20:54:00;18.90;55.30
10213;DHT22;5150;51.400;6.692;2022-10-03T20:57:25;18.90;57.90
10213;DHT22;5150;51.400;6.692;2022-10-03T21:00:52;18.90;62.30
10213;DHT22;5150;51.400;6.692;2022-10-03T21:04:22;18.90;64.40
10213;DHT22;5150;51.400;6.692;2022-10-03T21:07:50;18.90;67.10
10213;DHT22;5150;51.400;6.692;2022-10-03T21:11:20;18.90;70.10
10213;DHT22;5150;51.400;6.692;2022-10-03T21:14:47;18.80;72.40
10213;DHT22;5150;51.400;6.692;2022-10-03T21:18:18;18.80;74.50
10213;DHT22;5150;51.400;6.692;2022-10-03T21:21:47;18.80;76.10
10213;DHT22;5150;51.400;6.692;2022-10-03T21:25:16;18.80;79.50
10213;DHT22;5150;51.400;6.692;2022-10-03T21:28:45;18.80;81.50
10213;DHT22;5150;51.400;6.692;2022-10-03T21:32:19;18.80;85.10
10213;DHT22;5150;51.400;6.692;2022-10-03T21:35:48;18.80;87.90
10213;DHT22;5150;51.400;6.692;2022-10-03T21:39:16;18.80;87.70
10213;DHT22;5150;51.400;6.692;2022-10-03T21:42:46;18.80;89.10
10213;DHT22;5150;51.400;6.692;2022-10-03T21:46:20;18.80;90.20
10213;DHT22;5150;51.400;6.692;2022-10-03T21:49:53;18.70;91.10
10213;DHT22;5150;51.400;6.692;2022-10-03T21:53:18;18.70;91.90
10213;DHT22;5150;51.400;6.692;2022-10-03T21:56:54;18.70;92.20
10213;DHT22;5150;51.400;6.692;2022-10-03T22:00:25;18.70;93.00
10213;DHT22;5150;51.400;6.692;2022-10-03T22:03:52;18.70;93.80
10213;DHT22;5150;51.400;6.692;2022-10-03T22:07:28;18.70;94.30
10213;DHT22;5150;51.400;6.692;2022-10-03T22:11:03;18.70;95.20
10213;DHT22;5150;51.400;6.692;2022-10-03T22:14:36;18.70;95.90
10213;DHT22;5150;51.400;6.692;2022-10-03T22:18:03;18.70;96.10
10213;DHT22;5150;51.400;6.692;2022-10-03T22:21:33;18.70;96.60
10213;DHT22;5150;51.400;6.692;2022-10-03T22:25:08;18.70;97.70
10213;DHT22;5150;51.400;6.692;2022-10-03T22:28:40;18.70;98.80
10213;DHT22;5150;51.400;6.692;2022-10-03T22:32:10;18.70;99.90
10213;DHT22;5150;51.400;6.692;2022-10-03T22:35:46;18.60;99.60
10213;DHT22;5150;51.400;6.692;2022-10-03T22:39:13;18.60;99.90
10213;DHT22;5150;51.400;6.692;2022-10-03T22:42:39;18.60;99.90
10213;DHT22;5150;51.400;6.692;2022-10-03T22:46:04;18.60;99.90
10213;DHT22;5150;51.400;6.692;2022-10-03T22:49:32;18.60;99.90
10213;DHT22;5150;51.400;6.692;2022-10-03T22:52:58;18.60;99.90
10213;DHT22;5150;51.400;6.692;2022-10-03T22:56:34;18.60;99.90
10213;DHT22;5150;51.400;6.692;2022-10-03T23:00:03;18.60;99.90
10213;DHT22;5150;51.400;6.692;2022-10-03T23:03:29;18.60;99.90
10213;DHT22;5150;51.400;6.692;2022-10-03T23:10:47;18.50;99.90
10213;DHT22;5150;51.400;6.692;2022-10-03T23:14:18;18.50;99.90
10213;DHT22;5150;51.400;6.692;2022-10-03T23:17:54;18.50;99.90
10213;DHT22;5150;51.400;6.692;2022-10-03T23:21:20;18.50;99.90
10213;DHT22;5150;51.400;6.692;2022-10-03T23:24:46;18.50;99.90
10213;DHT22;5150;51.400;6.692;2022-10-03T23:28:19;18.50;99.90
10213;DHT22;5150;51.400;6.692;2022-10-03T23:31:58;18.50;99.90
10213;DHT22;5150;51.400;6.692;2022-10-03T23:35:35;18.50;99.90
10213;DHT22;5150;51.400;6.692;2022-10-03T23:39:01;18.50;99.90
10213;DHT22;5150;51.400;6.692;2022-10-03T23:42:26;18.40;99.90
10213;DHT22;5150;51.400;6.692;2022-10-03T23:46:00;18.40;99.90
10213;DHT22;5150;51.400;6.692;2022-10-03T23:49:26;18.40;99.90
10213;DHT22;5150;51.400;6.692;2022-10-03T23:52:51;18.40;99.90
10213;DHT22;5150;51.400;6.692;2022-10-03T23:56:27;18.40;99.90
10213;DHT22;5150;51.400;6.692;2022-10-03T23:59:52;18.40;99.90
